Time;durP1;ratioP1;P1;durP2;ratioP2;P2;SDS_P1;SDS_P2;PMS_P1;PMS_P2;Temp;Humidity;BMP_temperature;BMP_pressure;BME280_temperature;BME280_humidity;BME280_pressure;Samples;Min_cycle;Max_cycle;Signal;HPM_P1;HPM_P2
2022/09/07 00:00:30;;;;;;;3.92;1.80;;;17.90;99.90;;;17.92;100.00;97074.53;5013037;28;20032;-49
2022/09/07 00:02:56;;;;;;;3.55;1.75;;;18.00;99.90;;;18.04;100.00;97084.34;5012644;28;20030;-51
2022/09/07 00:05:21;;;;;;;2.92;1.50;;;18.10;99.90;;;18.15;100.00;97074.72;5015072;28;20076;-51
2022/09/07 00:07:47;;;;;;;2.85;1.58;;;18.20;99.90;;;18.22;100.00;97065.28;5014359;28;20037;-49
2022/09/07 00:10:13;;;;;;;4.97;1.90;;;18.30;99.90;;;18.25;100.00;97049.03;5015242;28;20034;-48
2022/09/07 00:12:38;;;;;;;3.67;1.58;;;18.30;99.90;;;18.25;100.00;97057.03;5014315;28;20112;-50
2022/09/07 00:15:08;;;;;;;3.15;1.70;;;18.40;99.90;;;18.23;100.00;97054.50;4996644;28;20029;-49
2022/09/07 00:17:34;;;;;;;3.45;1.73;;;18.40;99.90;;;18.29;100.00;97053.19;5013283;28;20025;-50
2022/09/07 00:20:00;;;;;;;1.77;1.50;;;18.40;99.90;;;18.32;100.00;97042.28;5014736;28;20128;-51
2022/09/07 00:22:26;;;;;;;4.78;1.70;;;18.50;99.90;;;18.47;100.00;97051.81;5015003;28;20032;-49
2022/09/07 00:24:51;;;;;;;2.83;1.48;;;18.50;99.90;;;18.60;100.00;97059.78;5012625;28;20080;-48
2022/09/07 00:27:17;;;;;;;3.63;1.65;;;18.70;99.90;;;18.72;100.00;97054.47;5014209;28;20036;-49
2022/09/07 00:29:43;;;;;;;3.25;1.70;;;18.80;99.90;;;18.81;100.00;97048.44;5014348;28;20071;-50
2022/09/07 00:32:08;;;;;;;4.85;1.92;;;18.90;99.90;;;18.91;100.00;97045.94;5011442;28;20018;-47
2022/09/07 00:34:34;;;;;;;3.38;1.40;;;19.00;99.90;;;18.93;100.00;97030.66;5012248;28;20457;-47
2022/09/07 00:37:00;;;;;;;2.30;1.40;;;19.00;99.90;;;18.97;100.00;97024.09;5014245;28;20040;-47
2022/09/07 00:39:26;;;;;;;3.92;1.40;;;19.10;99.90;;;18.97;100.00;97030.31;5013712;28;20154;-47
2022/09/07 00:41:51;;;;;;;5.50;1.50;;;19.10;99.90;;;18.95;100.00;97023.38;5014867;28;20038;-49
2022/09/07 00:44:55;;;;;;;5.68;1.55;;;19.10;99.90;;;18.98;100.00;97023.13;5014251;28;20537;-48
2022/09/07 00:47:43;;;;;;;3.47;1.40;;;19.10;99.90;;;18.99;100.00;97011.50;5012059;28;20502;-48
2022/09/07 00:50:21;;;;;;;5.53;1.73;;;19.10;99.90;;;18.99;100.00;96998.97;4998083;28;20037;-47
2022/09/07 00:52:53;;;;;;;2.28;1.45;;;19.10;99.90;;;18.99;99.98;96998.13;4997263;28;20522;-45
2022/09/07 00:55:19;;;;;;;2.75;1.63;;;19.10;99.90;;;18.96;100.00;97003.69;5012697;28;20175;-49
2022/09/07 00:57:51;;;;;;;4.07;1.48;;;19.10;99.90;;;18.95;99.37;97007.34;4995978;28;20021;-47
2022/09/07 01:00:16;;;;;;;4.57;1.75;;;19.00;99.90;;;18.89;99.22;96990.81;4994020;28;20470;-48
2022/09/07 01:02:43;;;;;;;5.15;1.40;;;19.00;99.90;;;18.88;98.46;96999.81;5012781;28;20021;-46
2022/09/07 01:05:29;;;;;;;1.48;1.30;;;19.00;99.90;;;18.82;100.00;97004.75;4995080;28;20192;-49
2022/09/07 01:07:56;;;;;;;3.10;1.25;;;18.90;99.90;;;18.78;100.00;96992.59;5013775;28;20125;-51
2022/09/07 01:10:30;;;;;;;2.10;1.30;;;18.90;99.90;;;18.65;100.00;96966.81;5010619;28;20041;-49
2022/09/07 01:12:57;;;;;;;2.33;1.20;;;18.90;99.90;;;18.76;100.00;96975.81;5012436;28;20042;-50
2022/09/07 01:15:39;;;;;;;3.92;1.52;;;18.90;99.90;;;18.80;100.00;96977.28;5015124;28;20501;-49
2022/09/07 01:18:58;;;;;;;4.30;1.55;;;18.90;99.90;;;18.92;100.00;96983.53;5012306;28;20026;-50
2022/09/07 01:22:02;;;;;;;3.58;1.58;;;19.00;99.90;;;18.96;100.00;96983.16;4957090;28;20103;-49
2022/09/07 01:24:54;;;;;;;5.95;1.80;;;19.10;99.90;;;18.98;100.00;96981.22;4994718;28;20041;-50
2022/09/07 01:28:16;;;;;;;3.13;1.67;;;19.10;99.90;;;19.02;100.00;96976.50;4995681;28;20026;-50
2022/09/07 01:31:56;;;;;;;3.35;1.80;;;19.20;99.90;;;19.07;100.00;96983.19;4997357;28;20577;-50
2022/09/07 01:34:25;;;;;;;5.93;1.60;;;19.20;99.90;;;19.12;100.00;96984.66;5001599;28;20037;-48
2022/09/07 01:37:30;;;;;;;4.85;2.42;;;19.20;99.90;;;19.17;100.00;96994.00;5010174;28;20037;-46
2022/09/07 01:40:47;;;;;;;3.95;1.40;;;19.30;99.90;;;19.22;100.00;96997.19;4994323;28;20103;-47
2022/09/07 01:43:32;;;;;;;3.10;1.70;;;19.40;99.90;;;19.26;100.00;97003.16;5012520;28;20075;-47
2022/09/07 01:46:02;;;;;;;3.35;1.80;;;19.40;99.90;;;19.27;100.00;97004.81;5011936;28;20042;-45
2022/09/07 01:48:31;;;;;;;3.80;1.65;;;19.40;99.90;;;19.32;100.00;97012.50;4996570;28;20061;-46
2022/09/07 01:51:03;;;;;;;4.88;2.17;;;19.40;99.90;;;19.31;100.00;97014.34;5012688;28;20037;-46
2022/09/07 01:53:38;;;;;;;3.80;1.90;;;19.40;99.90;;;19.34;100.00;97015.91;4996696;28;20512;-47
2022/09/07 01:56:37;;;;;;;7.00;1.90;;;19.50;99.90;;;19.37;100.00;97021.00;4993732;28;20041;-50
2022/09/07 01:59:17;;;;;;;5.72;1.80;;;19.50;99.90;;;19.41;100.00;97014.44;5011286;28;20029;-46
2022/09/07 02:01:52;;;;;;;5.47;1.83;;;19.50;99.90;;;19.40;100.00;97018.09;4994637;28;20026;-50
2022/09/07 02:04:24;;;;;;;2.55;1.65;;;19.50;99.90;;;19.37;100.00;97024.53;4995886;28;20025;-46
2022/09/07 02:06:59;;;;;;;4.45;1.50;;;19.50;99.90;;;19.36;100.00;97024.66;4994184;28;20065;-48
2022/09/07 02:09:37;;;;;;;5.25;1.90;;;19.50;99.90;;;19.31;100.00;97022.34;4995627;28;20034;-45
2022/09/07 02:12:17;;;;;;;4.45;1.70;;;19.50;99.90;;;19.30;100.00;97025.13;5009781;28;20643;-48
2022/09/07 02:14:49;;;;;;;4.43;1.77;;;19.40;99.90;;;19.30;100.00;97027.81;4995223;28;20116;-49
2022/09/07 02:17:27;;;;;;;4.03;1.65;;;19.40;99.90;;;19.26;100.00;97029.88;4994432;28;20088;-48
2022/09/07 02:19:58;;;;;;;2.15;1.48;;;19.40;99.90;;;19.20;100.00;97020.50;4995580;28;20113;-49
2022/09/07 02:22:28;;;;;;;4.72;1.67;;;19.40;99.90;;;19.22;100.00;97031.06;4995572;28;20104;-47
2022/09/07 02:24:58;;;;;;;6.68;1.60;;;19.30;99.90;;;19.19;100.00;97032.16;4994523;28;20075;-49
2022/09/07 02:27:34;;;;;;;3.47;1.65;;;19.30;99.90;;;19.17;100.00;97034.09;4992852;28;20292;-49
2022/09/07 02:30:00;;;;;;;4.00;1.52;;;19.30;99.90;;;19.08;100.00;97019.63;5011750;22;20029;-45
2022/09/07 02:32:26;;;;;;;2.33;1.38;;;19.30;99.90;;;19.12;100.00;97033.59;4969500;28;20384;-45
2022/09/07 02:34:51;;;;;;;5.30;2.05;;;19.30;99.90;;;19.11;100.00;97037.25;4972146;28;20715;-47
2022/09/07 02:37:19;;;;;;;4.97;1.70;;;19.30;99.90;;;19.08;100.00;97043.69;4973138;28;20018;-44
2022/09/07 02:39:46;;;;;;;4.45;1.58;;;19.20;99.90;;;19.02;100.00;97049.53;4972671;28;20026;-47
2022/09/07 02:42:12;;;;;;;2.63;1.63;;;19.20;99.90;;;19.04;100.00;97066.28;4953058;28;20022;-45
2022/09/07 02:44:40;;;;;;;9.25;1.98;;;19.20;99.90;;;19.04;100.00;97084.13;4955197;28;20034;-46
2022/09/07 02:48:03;;;;;;;4.00;2.35;;;19.20;99.90;;;18.96;100.00;97097.22;4939993;28;20488;-45
2022/09/07 02:50:46;;;;;;;5.20;1.48;;;19.10;99.90;;;18.87;100.00;97099.59;4888540;29;20056;-47
2022/09/07 02:53:55;;;;;;;6.38;2.17;;;19.00;99.90;;;18.77;100.00;97097.72;4881092;29;20651;-44
2022/09/07 02:57:03;;;;;;;6.65;2.25;;;18.90;99.90;;;18.66;100.00;97091.38;4940137;28;20081;-44
2022/09/07 02:59:51;;;;;;;5.70;2.00;;;18.80;99.90;;;18.56;100.00;97078.81;4959168;28;20121;-46
2022/09/07 03:02:40;;;;;;;5.70;2.03;;;18.80;99.90;;;18.54;100.00;97084.28;4942543;28;20034;-44
2022/09/07 03:05:57;;;;;;;8.95;2.25;;;18.70;99.90;;;18.48;100.00;97084.72;4957576;28;20487;-45
2022/09/07 03:08:33;;;;;;;6.20;2.10;;;18.60;99.90;;;18.33;100.00;97086.72;4917641;29;20036;-47
2022/09/07 03:11:00;;;;;;;6.28;1.75;;;18.50;99.90;;;18.27;100.00;97089.84;4933261;28;20036;-47
2022/09/07 03:13:28;;;;;;;5.22;1.50;;;18.50;99.90;;;18.18;100.00;97086.00;4957654;28;20032;-44
2022/09/07 03:15:54;;;;;;;2.53;1.85;;;18.40;99.90;;;18.13;100.00;97086.34;4958257;28;20038;-45
2022/09/07 03:18:21;;;;;;;3.35;2.30;;;18.30;99.90;;;18.12;100.00;97090.00;4956805;28;20011;-44
2022/09/07 03:20:47;;;;;;;3.08;2.05;;;18.30;99.90;;;18.07;100.00;97083.25;4957784;28;20027;-45
2022/09/07 03:23:13;;;;;;;3.88;2.00;;;18.30;99.90;;;18.03;100.00;97084.44;4956144;28;21450;-44
2022/09/07 03:25:38;;;;;;;3.60;2.05;;;18.20;99.90;;;17.98;100.00;97087.47;4938999;28;20101;-45
2022/09/07 03:28:04;;;;;;;2.67;1.92;;;18.20;99.90;;;17.85;100.00;97079.47;4957090;28;20041;-46
2022/09/07 03:30:30;;;;;;;4.00;1.75;;;18.10;99.90;;;17.81;100.00;97083.28;4956407;28;20027;-46
2022/09/07 03:32:56;;;;;;;4.47;1.80;;;18.00;99.90;;;17.73;100.00;97086.50;4957148;28;20122;-44
2022/09/07 03:35:22;;;;;;;2.38;1.70;;;17.90;99.90;;;17.65;100.00;97088.84;4959641;28;20047;-45
2022/09/07 03:37:47;;;;;;;2.35;1.80;;;17.80;99.90;;;17.55;100.00;97087.81;4956289;28;20257;-45
2022/09/07 03:40:15;;;;;;;2.38;1.75;;;17.70;99.90;;;17.48;100.00;97090.03;4954901;28;20420;-48
2022/09/07 03:42:41;;;;;;;3.88;1.70;;;17.70;99.90;;;17.42;100.00;97095.78;4956621;28;20114;-47
2022/09/07 03:45:08;;;;;;;2.22;1.63;;;17.60;99.90;;;17.40;100.00;97088.88;4956949;28;20093;-48
2022/09/07 03:47:35;;;;;;;2.47;1.90;;;17.60;99.90;;;17.36;100.00;97088.22;4955831;28;20043;-48
2022/09/07 03:50:02;;;;;;;4.15;1.83;;;17.50;99.90;;;17.29;100.00;97087.78;4955051;28;20063;-43
2022/09/07 03:52:28;;;;;;;2.92;1.90;;;17.50;99.90;;;17.21;100.00;97089.28;4956827;28;20297;-48
2022/09/07 03:54:53;;;;;;;3.70;1.90;;;17.40;99.90;;;17.11;100.00;97079.25;4956660;28;20478;-47
2022/09/07 03:57:19;;;;;;;3.95;2.00;;;17.30;99.90;;;17.10;100.00;97077.56;4957185;28;20031;-47
2022/09/07 03:59:45;;;;;;;5.10;2.00;;;17.30;99.90;;;17.05;100.00;97084.13;4954665;28;20035;-46
2022/09/07 04:02:12;;;;;;;3.65;2.08;;;17.20;99.90;;;17.02;100.00;97093.22;4938863;28;20035;-43
2022/09/07 04:04:38;;;;;;;3.38;2.05;;;17.20;99.90;;;16.98;100.00;97091.72;4956464;28;20043;-46
2022/09/07 04:07:05;;;;;;;3.13;1.92;;;17.20;99.90;;;16.96;100.00;97097.16;4957703;28;20114;-46
2022/09/07 04:09:31;;;;;;;3.63;2.00;;;17.10;99.90;;;16.97;100.00;97100.66;4940111;28;20019;-45
2022/09/07 04:11:56;;;;;;;2.95;2.20;;;17.10;99.90;;;16.95;100.00;97095.41;4956567;28;20031;-48
2022/09/07 04:14:22;;;;;;;4.63;2.05;;;17.10;99.90;;;16.97;100.00;97098.00;4955181;28;20443;-46
2022/09/07 04:16:48;;;;;;;4.70;2.20;;;17.10;99.90;;;16.95;100.00;97090.09;4952791;28;20074;-46
2022/09/07 04:19:14;;;;;;;3.55;2.00;;;17.10;99.90;;;16.90;100.00;97094.03;4956865;28;20063;-52
2022/09/07 04:21:39;;;;;;;3.05;1.90;;;17.10;99.90;;;16.82;100.00;97097.19;4954073;28;20513;-47
2022/09/07 04:24:05;;;;;;;3.50;2.13;;;17.00;99.90;;;16.82;100.00;97099.84;4956144;28;20023;-45
2022/09/07 04:26:34;;;;;;;3.17;2.03;;;17.00;99.90;;;16.72;100.00;97091.59;4955698;28;20475;-46
2022/09/07 04:29:00;;;;;;;5.28;2.33;;;16.90;99.90;;;16.75;100.00;97098.56;4958326;28;20109;-44
2022/09/07 04:31:26;;;;;;;3.13;2.22;;;16.90;99.90;;;16.75;100.00;97099.41;4921991;28;20440;-47
2022/09/07 04:33:52;;;;;;;3.95;2.20;;;17.00;99.90;;;16.76;100.00;97093.13;4956282;28;20062;-48
2022/09/07 04:36:19;;;;;;;3.30;2.33;;;17.00;99.90;;;16.80;100.00;97091.13;4940253;28;20103;-48
2022/09/07 04:38:45;;;;;;;5.05;2.20;;;17.00;99.90;;;16.78;100.00;97101.88;4955694;28;20038;-46
2022/09/07 04:41:13;;;;;;;2.85;1.80;;;17.00;99.90;;;16.80;100.00;97097.28;4956907;28;20027;-46
2022/09/07 04:43:40;;;;;;;4.70;2.22;;;17.00;99.90;;;16.80;100.00;97096.44;4940017;28;20378;-45
2022/09/07 04:46:22;;;;;;;4.30;2.13;;;17.00;99.90;;;16.77;100.00;97086.84;4938769;28;20474;-45
2022/09/07 04:48:54;;;;;;;4.10;2.08;;;16.90;99.90;;;16.74;100.00;97097.72;4954869;28;20169;-45
2022/09/07 04:51:21;;;;;;;3.90;2.50;;;16.90;99.90;;;16.70;100.00;97085.53;4956294;28;20483;-45
2022/09/07 04:53:49;;;;;;;3.78;2.13;;;16.90;99.90;;;16.66;100.00;97092.03;4954087;28;20286;-47
2022/09/07 04:56:16;;;;;;;3.40;2.17;;;16.80;99.90;;;16.62;100.00;97085.22;4956813;28;20426;-45
2022/09/07 04:58:42;;;;;;;5.28;1.80;;;16.80;99.90;;;16.59;100.00;97088.91;4954731;28;20089;-45
2022/09/07 05:01:08;;;;;;;3.28;2.38;;;16.80;99.90;;;16.53;100.00;97086.66;4956884;28;20020;-47
2022/09/07 05:03:37;;;;;;;5.72;2.42;;;16.80;99.90;;;16.56;100.00;97094.47;4952911;28;20027;-47
2022/09/07 05:06:04;;;;;;;3.78;2.53;;;16.70;99.90;;;16.56;100.00;97091.78;4956113;28;20031;-47
2022/09/07 05:08:53;;;;;;;3.60;2.03;;;16.80;99.90;;;16.56;100.00;97098.91;4953125;28;20023;-44
2022/09/07 05:11:21;;;;;;;2.75;2.05;;;16.70;99.90;;;16.55;100.00;97092.75;4954749;28;20391;-46
2022/09/07 05:13:47;;;;;;;4.30;2.63;;;16.70;99.90;;;16.56;100.00;97096.25;4955756;28;20038;-44
2022/09/07 05:16:16;;;;;;;6.20;2.22;;;16.70;99.90;;;16.57;100.00;97092.63;4954933;28;20678;-45
2022/09/07 05:18:43;;;;;;;3.50;2.35;;;16.70;99.90;;;16.57;100.00;97093.50;4954954;28;20034;-48
2022/09/07 05:21:21;;;;;;;3.15;2.38;;;16.70;99.90;;;16.60;100.00;97097.78;4954826;28;20376;-47
2022/09/07 05:23:52;;;;;;;3.20;2.28;;;16.80;99.90;;;16.61;100.00;97091.47;4935748;28;20055;-45
2022/09/07 05:26:21;;;;;;;4.05;2.20;;;16.80;99.90;;;16.61;100.00;97086.16;4954083;28;20038;-48
2022/09/07 05:28:47;;;;;;;4.80;2.35;;;16.80;99.90;;;16.66;100.00;97088.53;4955353;28;20035;-47
2022/09/07 05:31:16;;;;;;;4.45;2.08;;;16.80;99.90;;;16.65;100.00;97086.81;4937310;28;20399;-44
2022/09/07 05:33:53;;;;;;;3.90;2.47;;;16.80;99.90;;;16.74;100.00;97086.19;4954840;28;20541;-49
2022/09/07 05:36:19;;;;;;;5.35;2.40;;;16.90;99.90;;;16.75;100.00;97085.25;4955794;28;20138;-45
2022/09/07 05:38:45;;;;;;;5.07;2.60;;;17.00;99.90;;;16.85;100.00;97091.69;4952964;28;20050;-44
2022/09/07 05:41:17;;;;;;;5.55;2.85;;;17.10;99.90;;;16.94;100.00;97109.72;4952811;28;20086;-45
2022/09/07 05:43:44;;;;;;;3.75;2.45;;;17.10;99.90;;;17.08;100.00;97116.75;4939152;28;20027;-45
2022/09/07 05:46:13;;;;;;;2.70;2.40;;;17.30;99.90;;;17.25;100.00;97109.44;4956042;28;20195;-47
2022/09/07 05:48:39;;;;;;;3.33;2.50;;;17.50;99.90;;;17.47;100.00;97112.31;4954821;28;20122;-47
2022/09/07 05:51:06;;;;;;;2.75;1.90;;;17.70;99.90;;;17.70;100.00;97108.06;4955559;28;20023;-45
2022/09/07 05:53:36;;;;;;;5.82;2.20;;;17.90;99.90;;;17.96;100.00;97116.03;4953140;28;20537;-48
2022/09/07 05:56:03;;;;;;;6.00;2.40;;;18.10;99.90;;;18.18;100.00;97106.50;4937879;28;20482;-46
2022/09/07 05:58:29;;;;;;;4.78;2.53;;;18.40;99.90;;;18.36;100.00;97110.50;4952240;28;20059;-47
2022/09/07 06:01:12;;;;;;;5.43;2.10;;;18.60;99.90;;;18.56;100.00;97101.03;4955117;28;20106;-47
2022/09/07 06:03:40;;;;;;;9.43;2.30;;;18.80;99.90;;;18.78;100.00;97118.13;4953520;28;20027;-44
2022/09/07 06:06:12;;;;;;;4.97;2.30;;;19.00;99.90;;;18.91;100.00;97116.25;4954962;28;20027;-44
2022/09/07 06:08:44;;;;;;;6.30;2.20;;;19.10;99.90;;;19.10;100.00;97122.91;4954334;28;20031;-44
2022/09/07 06:11:13;;;;;;;6.05;2.30;;;19.20;99.90;;;19.26;100.00;97126.97;4951596;28;20030;-48
2022/09/07 06:13:39;;;;;;;6.28;2.35;;;19.40;99.90;;;19.39;100.00;97126.03;4954706;28;20031;-47
2022/09/07 06:16:07;;;;;;;3.10;2.10;;;19.60;99.90;;;19.58;100.00;97122.78;4954722;28;20419;-45
2022/09/07 06:18:36;;;;;;;3.38;1.92;;;19.80;99.90;;;19.71;100.00;97117.31;4953633;28;20427;-46
2022/09/07 06:21:10;;;;;;;5.00;2.30;;;19.90;99.90;;;19.81;100.00;97116.50;4954247;28;20034;-45
2022/09/07 06:23:38;;;;;;;6.47;2.65;;;20.00;99.90;;;19.93;100.00;97121.84;4953089;28;20023;-48
2022/09/07 06:26:04;;;;;;;2.85;2.08;;;20.10;99.90;;;20.02;100.00;97113.09;4954750;28;20029;-45
2022/09/07 06:28:36;;;;;;;7.53;2.60;;;20.20;99.90;;;20.17;100.00;97119.03;4952663;28;20042;-45
2022/09/07 06:31:09;;;;;;;7.13;2.65;;;20.30;99.90;;;20.26;100.00;97115.63;4952608;28;20483;-43
2022/09/07 06:33:35;;;;;;;4.72;2.15;;;20.50;99.90;;;20.30;100.00;97113.56;4953394;28;20067;-44
2022/09/07 06:36:18;;;;;;;5.53;2.55;;;20.50;99.90;;;20.29;100.00;97109.16;4955439;28;20041;-43
2022/09/07 06:38:45;;;;;;;6.40;2.30;;;20.50;99.90;;;20.28;100.00;97113.69;4953538;28;20095;-43
2022/09/07 06:41:16;;;;;;;3.35;1.70;;;20.50;99.90;;;20.29;100.00;97109.16;4937632;28;20083;-44
2022/09/07 06:43:42;;;;;;;5.15;2.17;;;20.50;99.90;;;20.15;100.00;97088.84;4935527;28;20554;-44
2022/09/07 06:46:09;;;;;;;5.45;2.03;;;20.40;99.90;;;20.23;100.00;97107.84;4952813;28;20030;-44
2022/09/07 06:48:35;;;;;;;9.13;2.13;;;20.40;99.90;;;20.24;100.00;97108.69;4951382;28;20051;-44
2022/09/07 06:51:03;;;;;;;3.78;1.90;;;20.40;99.90;;;20.29;100.00;97106.50;4953985;28;20109;-44
2022/09/07 06:53:31;;;;;;;3.60;1.85;;;20.40;99.90;;;20.36;100.00;97118.41;4935804;28;20114;-43
2022/09/07 06:55:57;;;;;;;5.35;1.95;;;20.50;99.90;;;20.50;100.00;97120.81;4953201;28;20027;-49
2022/09/07 06:58:24;;;;;;;4.70;1.63;;;20.60;99.90;;;20.62;100.00;97127.03;4953909;28;20411;-45
2022/09/07 07:00:50;;;;;;;5.63;1.83;;;20.70;99.90;;;20.72;100.00;97121.75;4954347;28;20023;-44
2022/09/07 07:03:16;;;;;;;3.38;1.67;;;20.80;99.90;;;20.81;100.00;97125.50;4937309;28;20047;-43
2022/09/07 07:05:53;;;;;;;5.18;1.70;;;20.90;99.90;;;20.84;100.00;97123.44;4936669;28;21254;-43
2022/09/07 07:08:21;;;;;;;5.28;1.67;;;20.90;99.90;;;20.83;100.00;97121.72;4952616;28;20097;-44
2022/09/07 07:10:47;;;;;;;2.72;1.70;;;20.90;99.90;;;20.79;100.00;97114.91;4954407;28;20138;-43
2022/09/07 07:13:13;;;;;;;4.35;1.80;;;20.90;99.90;;;20.73;100.00;97113.59;4952705;28;20058;-45
2022/09/07 07:15:39;;;;;;;3.30;1.85;;;20.80;99.90;;;20.71;100.00;97120.91;4954955;28;20042;-44
2022/09/07 07:18:05;;;;;;;4.25;1.80;;;20.90;99.90;;;20.65;100.00;97124.09;4954430;28;20034;-44
2022/09/07 07:20:31;;;;;;;5.38;2.13;;;20.80;99.90;;;20.67;100.00;97129.31;4951529;28;20019;-43
2022/09/07 07:22:57;;;;;;;4.53;2.10;;;20.80;99.90;;;20.64;100.00;97121.53;4952721;28;20114;-44
2022/09/07 07:25:22;;;;;;;6.47;2.17;;;20.90;99.90;;;20.57;100.00;97118.50;4952727;28;20039;-42
2022/09/07 07:27:49;;;;;;;2.83;1.73;;;20.90;99.90;;;20.74;100.00;97146.59;4953393;28;20122;-39
2022/09/07 07:30:16;;;;;;;4.32;1.95;;;20.90;99.90;;;20.82;100.00;97140.59;4955617;28;20027;-44
2022/09/07 07:32:43;;;;;;;4.88;1.95;;;21.00;99.90;;;20.90;99.11;97144.34;4957406;28;20452;-44
2022/09/07 07:35:09;;;;;;;7.20;1.98;;;21.00;99.90;;;20.98;99.87;97146.41;4956492;28;20394;-43
2022/09/07 07:37:36;;;;;;;9.85;2.10;;;21.10;99.90;;;21.06;96.92;97149.28;4954764;28;20027;-44
2022/09/07 07:40:13;;;;;;;7.25;2.30;;;21.20;99.90;;;21.14;95.40;97145.97;4956233;28;20499;-45
2022/09/07 07:42:40;;;;;;;3.42;2.10;;;21.30;99.90;;;21.28;95.76;97156.41;4956666;28;20070;-43
2022/09/07 07:45:08;;;;;;;6.65;2.17;;;21.40;99.90;;;21.34;93.80;97160.38;4958029;28;20019;-43
2022/09/07 07:47:34;;;;;;;4.75;2.00;;;21.50;99.90;;;21.46;94.18;97169.22;4954922;28;20042;-43
2022/09/07 07:50:05;;;;;;;4.38;1.92;;;21.60;99.90;;;21.59;93.94;97166.34;4957319;28;20051;-44
2022/09/07 07:52:33;;;;;;;5.97;2.40;;;21.70;99.90;;;21.66;92.86;97170.22;4954682;28;20027;-43
2022/09/07 07:54:59;;;;;;;4.55;2.17;;;21.80;99.90;;;21.79;92.77;97170.03;4956022;28;20105;-43
2022/09/07 07:57:25;;;;;;;6.57;2.30;;;21.90;99.90;;;21.90;91.47;97176.16;4955956;28;20015;-45
2022/09/07 07:59:50;;;;;;;7.57;1.92;;;22.00;99.90;;;22.02;90.25;97176.06;4957549;28;20038;-43
2022/09/07 08:02:16;;;;;;;8.70;1.90;;;22.10;99.90;;;22.17;88.99;97177.44;4955428;28;20032;-44
2022/09/07 08:04:42;;;;;;;11.45;2.15;;;22.30;99.90;;;22.28;88.88;97184.56;4956623;28;20026;-43
2022/09/07 08:07:10;;;;;;;9.00;2.10;;;22.30;99.90;;;22.30;87.18;97186.13;4956003;28;20479;-43
2022/09/07 08:09:42;;;;;;;6.47;2.15;;;22.40;99.90;;;22.42;85.25;97191.41;4956910;28;20514;-44
2022/09/07 08:12:11;;;;;;;4.00;1.97;;;22.50;99.90;;;22.46;86.24;97184.78;4952831;28;20113;-44
2022/09/07 08:14:40;;;;;;;3.42;1.75;;;22.50;99.90;;;22.54;85.15;97189.47;4954958;28;20298;-44
2022/09/07 08:17:10;;;;;;;5.22;2.20;;;22.60;99.90;;;22.63;85.34;97189.50;4954161;28;22337;-45
2022/09/07 08:19:36;;;;;;;5.60;2.17;;;22.70;99.90;;;22.74;85.95;97201.97;4957383;28;20026;-44
2022/09/07 08:22:02;;;;;;;6.93;2.10;;;22.80;99.90;;;22.80;83.71;97192.50;4956862;28;20038;-43
2022/09/07 08:24:32;;;;;;;4.57;2.05;;;22.80;99.90;;;22.84;83.25;97185.88;4957085;28;20346;-43
2022/09/07 08:26:58;;;;;;;7.45;2.20;;;22.90;99.90;;;22.86;83.89;97192.81;4953934;28;20046;-46
2022/09/07 08:29:24;;;;;;;6.82;2.10;;;22.90;99.90;;;22.94;82.29;97197.50;4955575;28;20031;-44
2022/09/07 08:31:49;;;;;;;5.38;2.13;;;23.00;99.90;;;22.99;81.54;97189.03;4996854;23;20509;-51
2022/09/07 08:34:15;;;;;;;4.85;2.05;;;23.00;99.90;;;23.02;82.31;97188.72;5019586;28;20385;-47
2022/09/07 08:36:41;;;;;;;5.95;2.00;;;23.10;99.90;;;23.08;81.67;97195.41;5019827;28;20152;-50
2022/09/07 08:39:07;;;;;;;4.25;2.10;;;23.10;99.90;;;23.14;81.90;97195.72;5021502;28;20022;-51
2022/09/07 08:42:08;;;;;;;6.30;2.10;;;23.20;99.90;;;23.19;81.91;97198.81;5018801;28;20029;-50
2022/09/07 08:44:44;;;;;;;7.45;2.03;;;23.20;99.90;;;23.20;81.27;97196.97;5019232;28;20013;-52
2022/09/07 08:47:38;;;;;;;4.30;2.10;;;23.30;99.90;;;23.21;81.61;97196.84;4989559;28;20100;-50
2022/09/07 08:50:20;;;;;;;9.68;2.25;;;23.30;99.90;;;23.20;81.91;97202.34;5021634;28;20025;-50
2022/09/07 08:53:02;;;;;;;6.63;2.20;;;23.20;99.90;;;23.28;83.68;97188.22;5001905;28;20106;-48
2022/09/07 08:55:33;;;;;;;3.83;1.85;;;23.30;99.90;;;23.24;81.41;97174.22;5017550;28;20080;-51
2022/09/07 08:58:21;;;;;;;5.80;2.10;;;23.40;99.90;;;23.31;81.74;97180.72;5018368;28;20151;-48
2022/09/07 09:00:50;;;;;;;7.97;2.40;;;23.40;99.90;;;23.34;82.02;97185.78;5017691;28;20017;-49
2022/09/07 09:03:30;;;;;;;8.70;2.20;;;23.40;99.90;;;23.43;82.38;97181.41;5017585;28;20124;-50
2022/09/07 09:06:10;;;;;;;8.05;2.47;;;23.50;99.90;;;23.52;77.98;97185.09;5020137;28;20103;-50
2022/09/07 09:08:53;;;;;;;3.15;1.73;;;23.60;99.90;;;23.60;78.54;97187.94;5001545;28;20065;-50
2022/09/07 09:11:42;;;;;;;;;;;23.70;99.90;;;23.68;78.33;97189.88;5019339;28;20021;-51
2022/09/07 09:14:33;;;;;;;5.40;2.70;;;23.70;99.90;;;23.77;79.60;97184.47;5006872;28;19931;-47
2022/09/07 09:17:18;;;;;;;5.75;2.65;;;23.80;99.90;;;23.82;76.11;97184.09;5020985;28;20033;-52
2022/09/07 09:20:07;;;;;;;7.93;2.75;;;23.90;99.90;;;23.94;76.77;97176.66;5001696;28;20036;-52
2022/09/07 09:22:34;;;;;;;9.07;3.30;;;24.00;99.90;;;23.96;75.40;97180.94;5002222;28;20044;-48
2022/09/07 09:25:18;;;;;;;7.70;2.53;;;24.10;99.90;;;23.93;74.93;97170.44;5017832;28;20095;-49
2022/09/07 09:27:44;;;;;;;5.25;2.22;;;24.10;99.90;;;23.98;76.37;97167.31;5017985;28;20025;-49
2022/09/07 09:30:21;;;;;;;4.38;1.70;;;24.10;99.90;;;24.13;76.83;97165.00;5018102;28;20037;-49
2022/09/07 09:32:51;;;;;;;6.30;1.95;;;24.20;99.90;;;24.28;74.92;97158.16;5019108;28;20087;-51
2022/09/07 09:35:34;;;;;;;8.57;2.28;;;24.30;99.90;;;24.44;73.38;97159.34;5018867;28;20022;-48
2022/09/07 09:38:02;;;;;;;5.95;2.10;;;24.50;99.90;;;24.54;73.01;97155.63;5018809;28;20029;-48
2022/09/07 09:40:35;;;;;;;3.75;2.00;;;24.60;99.90;;;24.70;71.81;97152.25;5017829;28;20032;-48
2022/09/07 09:43:19;;;;;;;6.53;2.35;;;24.70;99.90;;;24.75;69.42;97158.06;4984852;28;20505;-51
2022/09/07 09:45:56;;;;;;;5.93;2.25;;;24.80;99.90;;;24.73;69.73;97151.13;5020534;28;20094;-47
2022/09/07 09:48:31;;;;;;;9.77;2.05;;;24.90;99.90;;;24.62;73.07;97157.59;5002212;28;20078;-51
2022/09/07 09:50:59;;;;;;;7.03;2.50;;;24.70;99.90;;;24.34;73.29;97145.91;5019137;28;20071;-47
2022/09/07 09:53:29;;;;;;;2.97;1.80;;;24.50;99.90;;;24.27;73.64;97160.97;5002578;28;20029;-46
2022/09/07 09:55:55;;;;;;;8.98;2.10;;;24.30;99.90;;;24.18;73.86;97160.03;5017766;28;20095;-50
2022/09/07 09:58:32;;;;;;;5.15;2.35;;;24.20;99.90;;;24.22;75.56;97145.25;4997610;28;20037;-50
2022/09/07 10:01:20;;;;;;;5.53;2.22;;;24.30;99.90;;;24.31;73.92;97141.66;5018236;28;20052;-47
2022/09/07 10:03:46;;;;;;;4.57;2.70;;;24.40;99.90;;;24.44;71.32;97130.53;4999916;28;20021;-47
2022/09/07 10:06:16;;;;;;;4.53;2.13;;;24.50;99.90;;;24.60;72.26;97126.38;5003998;28;20052;-51
2022/09/07 10:08:57;;;;;;;6.10;2.10;;;24.70;99.90;;;24.65;70.87;97133.00;5002490;28;20028;-49
2022/09/07 10:11:44;;;;;;;6.03;2.20;;;24.80;99.90;;;24.75;70.31;97132.94;5002641;28;20034;-49
2022/09/07 10:14:25;;;;;;;5.65;2.10;;;24.80;99.90;;;24.63;71.52;97135.00;5020464;28;20080;-50
2022/09/07 10:16:51;;;;;;;5.25;2.05;;;24.70;99.90;;;24.63;68.97;97123.38;5019053;28;20439;-49
2022/09/07 10:19:35;;;;;;;4.15;2.10;;;24.70;99.90;;;24.71;68.42;97121.63;5000843;28;20397;-51
2022/09/07 10:22:19;;;;;;;3.85;2.00;;;24.80;99.90;;;24.89;70.61;97118.94;5016373;28;20303;-48
2022/09/07 10:24:45;;;;;;;5.32;2.22;;;24.90;99.90;;;25.00;67.37;97117.88;4998883;28;20440;-50
2022/09/07 10:27:35;;;;;;;4.53;2.00;;;25.10;99.90;;;25.02;65.60;97117.72;5004399;28;20048;-51
2022/09/07 10:30:09;;;;;;;11.02;2.80;;;25.20;99.90;;;24.93;67.52;97114.09;5018605;28;20041;-51
2022/09/07 10:32:58;;;;;;;3.90;2.03;;;25.10;99.90;;;24.80;69.99;97111.78;5004345;28;20036;-50
2022/09/07 10:35:34;;;;;;;5.18;1.95;;;24.90;99.90;;;24.62;70.34;97117.16;5020496;28;20088;-49
2022/09/07 10:38:15;;;;;;;4.60;1.52;;;24.70;99.90;;;24.45;72.29;97109.84;4998253;28;20321;-51